Time;durP1;ratioP1;P1;durP2;ratioP2;P2;SDS_P1;SDS_P2;PMS_P1;PMS_P2;Temp;Humidity;BMP_temperature;BMP_pressure;BME280_temperature;BME280_humidity;BME280_pressure;Samples;Min_cycle;Max_cycle;Signal;HPM_P1;HPM_P2
2021/05/13 00:00:01;;;;;;;3.13;1.33;;;21.80;51.90;;;;;;5033799;28;20500;-45
2021/05/13 00:02:26;;;;;;;3.35;1.23;;;21.80;52.00;;;;;;5030772;28;20033;-34
2021/05/13 00:04:52;;;;;;;3.85;1.25;;;21.80;51.90;;;;;;5030495;28;20471;-34
2021/05/13 00:07:18;;;;;;;2.92;1.27;;;21.80;51.90;;;;;;5030550;28;20041;-34
2021/05/13 00:09:44;;;;;;;3.42;1.30;;;21.80;51.90;;;;;;5031518;28;20029;-34
2021/05/13 00:12:26;;;;;;;4.05;1.25;;;21.80;51.90;;;;;;5029611;28;20117;-37
2021/05/13 00:14:52;;;;;;;5.80;1.48;;;21.80;51.80;;;;;;5031292;28;20022;-34
2021/05/13 00:17:18;;;;;;;4.10;1.17;;;21.80;51.90;;;;;;5031778;28;20044;-34
2021/05/13 00:19:44;;;;;;;2.92;1.25;;;21.80;51.80;;;;;;5038056;28;20033;-35
2021/05/13 00:22:09;;;;;;;3.35;1.40;;;21.80;51.80;;;;;;5030700;28;20055;-34
2021/05/13 00:24:35;;;;;;;4.40;1.10;;;21.80;51.80;;;;;;5008787;28;20062;-35
2021/05/13 00:27:02;;;;;;;3.45;1.30;;;21.80;51.80;;;;;;5008112;28;20180;-35
2021/05/13 00:29:28;;;;;;;3.17;1.23;;;21.80;51.80;;;;;;5009097;28;20042;-35
2021/05/13 00:31:53;;;;;;;2.75;1.30;;;21.80;51.80;;;;;;4992642;28;20022;-36
2021/05/13 00:34:19;;;;;;;3.17;1.08;;;21.80;51.80;;;;;;5008426;28;20046;-35
2021/05/13 00:36:45;;;;;;;4.00;1.13;;;21.80;51.70;;;;;;5009202;28;20460;-34
2021/05/13 00:39:11;;;;;;;3.05;1.20;;;21.80;51.70;;;;;;5008432;28;20045;-34
2021/05/13 00:41:37;;;;;;;2.42;1.30;;;21.80;51.70;;;;;;5006497;28;20048;-35
2021/05/13 00:44:05;;;;;;;6.13;1.33;;;21.80;51.70;;;;;;5008576;28;20069;-45
2021/05/13 00:46:31;;;;;;;2.38;1.05;;;21.80;52.30;;;;;;5008653;28;20033;-34
2021/05/13 00:49:09;;;;;;;2.58;1.00;;;21.80;51.70;;;;;;5009085;28;20526;-34
2021/05/13 00:51:36;;;;;;;2.47;0.98;;;21.80;51.70;;;;;;5008878;28;20065;-34
2021/05/13 00:54:01;;;;;;;1.88;0.90;;;21.80;51.60;;;;;;5008947;28;20034;-34
2021/05/13 00:56:29;;;;;;;3.28;1.23;;;21.80;51.70;;;;;;5026207;28;21479;-34
2021/05/13 00:59:03;;;;;;;2.97;1.33;;;21.80;51.60;;;;;;5030015;28;20501;-35
2021/05/13 01:02:02;;;;;;;2.40;0.95;;;21.80;51.60;;;;;;5029217;28;20057;-34
2021/05/13 01:04:21;;;;;;;2.53;0.98;;;21.80;51.70;;;;;;5026756;28;20046;-35
2021/05/13 01:06:49;;;;;;;3.90;1.17;;;21.80;51.70;;;;;;5030928;28;20037;-34
2021/05/13 01:09:26;;;;;;;4.60;1.40;;;21.80;51.70;;;;;;5029896;28;20043;-34
2021/05/13 01:11:56;;;;;;;1.75;1.17;;;21.80;51.70;;;;;;5030831;28;20534;-34
2021/05/13 01:14:26;;;;;;;3.72;1.17;;;21.80;51.80;;;;;;5029891;28;20033;-34
2021/05/13 01:17:53;;;;;;;4.57;1.10;;;21.80;51.80;;;;;;5030976;28;20029;-35
2021/05/13 01:19:52;;;;;;;2.17;1.08;;;21.70;51.70;;;;;;5027782;28;20524;-35
2021/05/13 01:22:20;;;;;;;4.13;1.30;;;21.70;51.70;;;;;;5030062;28;20041;-34
2021/05/13 01:24:47;;;;;;;2.42;1.00;;;21.70;51.60;;;;;;5030256;28;20478;-34
2021/05/13 01:27:13;;;;;;;7.03;1.55;;;21.70;51.60;;;;;;5029844;28;20037;-35
2021/05/13 01:29:46;;;;;;;2.15;1.17;;;21.70;51.60;;;;;;5031564;28;20033;-34
2021/05/13 01:32:13;;;;;;;2.05;0.88;;;21.70;51.60;;;;;;5028740;28;20069;-35
2021/05/13 01:34:39;;;;;;;3.88;1.40;;;21.70;51.60;;;;;;5030387;28;20048;-34
2021/05/13 01:37:04;;;;;;;1.70;0.95;;;21.70;51.50;;;;;;5025957;28;20038;-43
2021/05/13 01:39:30;;;;;;;4.45;1.08;;;21.70;51.50;;;;;;5033139;28;20060;-34
2021/05/13 01:41:56;;;;;;;4.97;0.98;;;21.70;51.50;;;;;;5033123;28;20041;-39
2021/05/13 01:44:21;;;;;;;6.97;1.20;;;21.60;51.40;;;;;;5026577;28;20030;-34
2021/05/13 01:46:47;;;;;;;3.92;1.02;;;21.60;51.40;;;;;;5034075;28;20394;-34
2021/05/13 01:49:21;;;;;;;1.80;1.20;;;21.60;51.40;;;;;;5033607;28;20091;-34
2021/05/13 01:51:47;;;;;;;3.72;1.13;;;21.60;51.40;;;;;;5032919;28;20347;-34
2021/05/13 01:54:14;;;;;;;2.70;1.05;;;21.60;51.40;;;;;;5033224;28;20038;-34
2021/05/13 01:56:40;;;;;;;4.13;1.10;;;21.60;51.40;;;;;;5034158;28;20029;-34
2021/05/13 01:59:05;;;;;;;3.08;1.05;;;21.60;51.40;;;;;;5033323;28;20045;-44
2021/05/13 02:01:32;;;;;;;2.67;0.85;;;21.60;51.40;;;;;;5033503;28;20037;-34
2021/05/13 02:03:57;;;;;;;2.03;0.98;;;21.60;51.50;;;;;;5032524;28;20025;-36
2021/05/13 02:06:23;;;;;;;3.03;1.00;;;21.60;51.50;;;;;;5033050;28;20082;-35
2021/05/13 02:08:49;;;;;;;2.03;1.10;;;21.60;51.40;;;;;;5033914;28;20116;-35
2021/05/13 02:11:16;;;;;;;3.20;1.08;;;21.60;51.40;;;;;;5033114;28;20033;-35
2021/05/13 02:13:41;;;;;;;3.65;1.00;;;21.60;51.40;;;;;;5032895;28;20044;-34
2021/05/13 02:16:07;;;;;;;3.78;0.95;;;21.50;51.40;;;;;;5033498;28;20035;-45
2021/05/13 02:18:33;;;;;;;2.10;0.93;;;21.50;51.40;;;;;;5033462;28;20096;-34
2021/05/13 02:20:58;;;;;;;1.70;1.00;;;21.50;51.40;;;;;;5033358;28;20030;-34
2021/05/13 02:23:24;;;;;;;2.60;1.17;;;21.50;51.40;;;;;;5031829;28;20454;-34
2021/05/13 02:25:50;;;;;;;2.90;0.93;;;21.50;51.40;;;;;;5032468;28;20512;-34
2021/05/13 02:28:17;;;;;;;2.42;0.95;;;21.50;51.40;;;;;;5032590;28;20037;-34
2021/05/13 02:30:43;;;;;;;2.60;1.05;;;21.50;51.40;;;;;;5029140;28;20387;-36
2021/05/13 02:33:10;;;;;;;4.03;1.50;;;21.50;51.40;;;;;;5031551;28;20030;-46
2021/05/13 02:35:37;;;;;;;3.70;1.35;;;21.50;51.30;;;;;;5031256;28;20454;-34
2021/05/13 02:38:03;;;;;;;2.17;0.98;;;21.50;51.30;;;;;;5033292;28;20050;-34
2021/05/13 02:40:29;;;;;;;1.90;0.90;;;21.50;51.30;;;;;;5032699;28;20017;-34
2021/05/13 02:42:55;;;;;;;1.60;1.00;;;21.50;51.30;;;;;;5012271;28;20434;-34
2021/05/13 02:45:21;;;;;;;3.03;1.10;;;21.50;51.30;;;;;;5032112;28;20108;-34
2021/05/13 02:47:47;;;;;;;3.42;1.20;;;21.50;51.30;;;;;;5033124;28;20025;-34
2021/05/13 02:50:14;;;;;;;6.88;1.35;;;21.50;51.30;;;;;;5031481;28;20529;-35
2021/05/13 02:52:40;;;;;;;2.83;1.20;;;21.50;51.30;;;;;;5033035;28;20438;-43
2021/05/13 02:55:07;;;;;;;1.77;0.90;;;21.50;51.30;;;;;;5033226;28;20079;-34
2021/05/13 02:57:33;;;;;;;1.95;0.95;;;21.50;51.30;;;;;;5031213;28;20025;-34
2021/05/13 03:00:24;;;;;;;1.88;1.00;;;21.50;51.30;;;;;;5033194;28;20398;-34
2021/05/13 03:02:48;;;;;;;3.22;0.98;;;21.50;51.30;;;;;;5032619;28;20029;-35
2021/05/13 03:05:15;;;;;;;2.65;1.02;;;21.50;51.20;;;;;;5036976;28;20116;-34
2021/05/13 03:07:47;;;;;;;1.75;1.00;;;21.40;51.10;;;;;;5037780;28;20037;-34
2021/05/13 03:10:42;;;;;;;2.28;0.93;;;21.50;51.20;;;;;;5039181;28;20079;-35
2021/05/13 03:13:00;;;;;;;2.28;0.88;;;21.40;51.70;;;;;;5031833;28;20049;-34
2021/05/13 03:15:26;;;;;;;2.75;1.20;;;21.50;51.20;;;;;;5030768;28;20033;-34
2021/05/13 03:17:52;;;;;;;1.88;1.10;;;21.50;51.10;;;;;;5032625;28;20037;-34
2021/05/13 03:20:21;;;;;;;3.03;1.15;;;21.50;51.10;;;;;;5031911;28;20030;-34
2021/05/13 03:22:51;;;;;;;2.03;1.20;;;21.50;51.10;;;;;;5032775;28;20029;-34
2021/05/13 03:25:24;;;;;;;3.35;1.17;;;21.50;51.10;;;;;;5027883;28;20117;-35
2021/05/13 03:27:51;;;;;;;3.10;1.20;;;21.40;51.00;;;;;;5032533;28;20037;-34
2021/05/13 03:30:19;;;;;;;2.15;1.20;;;21.40;51.00;;;;;;5031799;28;20071;-35
2021/05/13 03:32:45;;;;;;;2.17;1.02;;;21.50;51.10;;;;;;5032414;28;20021;-34
2021/05/13 03:35:14;;;;;;;1.65;1.08;;;21.40;51.00;;;;;;5031830;28;20034;-44
2021/05/13 03:37:39;;;;;;;1.85;1.00;;;21.40;51.00;;;;;;5032423;28;20381;-34
2021/05/13 03:40:06;;;;;;;2.45;1.13;;;21.50;51.00;;;;;;5031711;28;20017;-35
2021/05/13 03:42:31;;;;;;;2.17;0.93;;;21.40;50.90;;;;;;5031523;28;20052;-34
2021/05/13 03:44:57;;;;;;;2.08;1.27;;;21.40;51.00;;;;;;5031990;28;20454;-34
2021/05/13 03:47:23;;;;;;;2.10;1.00;;;21.50;51.00;;;;;;5031036;28;20087;-34
2021/05/13 03:49:50;;;;;;;2.33;1.00;;;21.40;51.00;;;;;;5031758;28;20108;-34
2021/05/13 03:52:16;;;;;;;2.28;1.10;;;21.40;51.00;;;;;;5029365;28;20033;-35
2021/05/13 03:54:41;;;;;;;2.53;1.00;;;21.50;51.00;;;;;;5030725;28;20036;-34
2021/05/13 03:57:07;;;;;;;2.92;1.08;;;21.40;51.00;;;;;;5031498;28;20378;-34
2021/05/13 03:59:39;;;;;;;3.13;1.10;;;21.50;51.00;;;;;;5030649;28;20089;-34
2021/05/13 04:02:47;;;;;;;2.60;1.02;;;21.40;51.00;;;;;;5031849;28;20083;-40
2021/05/13 04:04:54;;;;;;;4.07;1.30;;;21.40;51.30;;;;;;5031252;28;20067;-34
2021/05/13 04:07:20;;;;;;;2.72;1.35;;;21.40;51.00;;;;;;5030852;28;20030;-34
2021/05/13 04:09:46;;;;;;;2.65;1.52;;;21.40;51.00;;;;;;5031732;28;20072;-34
2021/05/13 04:12:12;;;;;;;3.95;1.15;;;21.40;51.00;;;;;;5030124;28;20033;-46
2021/05/13 04:14:37;;;;;;;1.83;1.13;;;21.40;51.00;;;;;;5031789;28;20025;-34
2021/05/13 04:17:06;;;;;;;1.90;1.10;;;21.40;51.00;;;;;;5031265;28;20132;-34
2021/05/13 04:19:32;;;;;;;2.13;0.95;;;21.50;51.10;;;;;;5026038;28;20128;-35
2021/05/13 04:21:58;;;;;;;1.85;1.10;;;21.40;51.00;;;;;;5031347;28;20118;-34
2021/05/13 04:24:23;;;;;;;2.00;0.90;;;21.50;51.00;;;;;;5029640;28;20371;-34
2021/05/13 04:26:49;;;;;;;1.40;0.93;;;21.40;51.00;;;;;;5031691;28;20048;-34
2021/05/13 04:29:15;;;;;;;2.45;0.90;;;21.40;51.00;;;;;;5029170;28;20087;-35
2021/05/13 04:31:40;;;;;;;1.35;1.00;;;21.40;50.90;;;;;;5030793;28;20030;-34
2021/05/13 04:34:06;;;;;;;1.80;1.00;;;21.40;51.00;;;;;;5030908;28;20104;-34
2021/05/13 04:36:32;;;;;;;4.75;1.10;;;21.40;50.90;;;;;;5030720;28;20259;-35
2021/05/13 04:38:58;;;;;;;2.50;1.20;;;21.40;50.90;;;;;;5031265;28;20463;-34
2021/05/13 04:41:25;;;;;;;1.90;0.93;;;21.40;51.00;;;;;;5029407;28;20483;-34
2021/05/13 04:43:51;;;;;;;2.40;1.25;;;21.40;51.00;;;;;;5031225;28;20071;-34
2021/05/13 04:46:17;;;;;;;2.30;0.90;;;21.40;51.00;;;;;;5030371;28;20486;-35
2021/05/13 04:51:20;;;;;;;2.83;1.10;;;21.40;51.00;;;;;;5030550;28;20088;-35
2021/05/13 04:53:49;;;;;;;1.42;1.00;;;21.40;51.00;;;;;;5028495;28;20026;-34
2021/05/13 04:56:17;;;;;;;3.45;1.00;;;21.40;51.00;;;;;;5030247;28;20032;-41
2021/05/13 04:58:43;;;;;;;2.58;1.15;;;21.40;51.00;;;;;;5030759;28;20045;-35
2021/05/13 05:01:09;;;;;;;1.52;1.00;;;21.40;51.00;;;;;;5029967;28;20034;-34
2021/05/13 05:03:35;;;;;;;1.83;0.90;;;21.40;51.00;;;;;;5030415;28;20061;-34
2021/05/13 05:06:01;;;;;;;2.45;1.20;;;21.40;51.00;;;;;;5030937;28;20509;-34
2021/05/13 05:08:27;;;;;;;4.78;1.40;;;21.40;51.00;;;;;;5030340;28;20029;-36
2021/05/13 05:10:52;;;;;;;1.45;0.90;;;21.40;51.00;;;;;;5022967;28;20057;-34
2021/05/13 05:13:19;;;;;;;2.67;1.02;;;21.40;51.00;;;;;;5027857;28;20080;-34
2021/05/13 05:15:45;;;;;;;2.13;1.02;;;21.40;51.00;;;;;;5034613;28;20030;-35
2021/05/13 05:18:21;;;;;;;1.15;0.80;;;21.40;51.00;;;;;;5034516;28;20025;-34
2021/05/13 05:20:48;;;;;;;3.75;1.13;;;21.40;51.00;;;;;;5034521;28;20030;-34
2021/05/13 05:23:15;;;;;;;1.13;0.90;;;21.40;51.00;;;;;;5032999;28;20029;-44
2021/05/13 05:25:40;;;;;;;2.03;1.10;;;21.40;51.00;;;;;;5034395;28;20040;-34
2021/05/13 05:28:07;;;;;;;3.05;0.98;;;21.40;51.00;;;;;;5034427;28;20116;-34
2021/05/13 05:30:34;;;;;;;2.85;0.93;;;21.40;50.90;;;;;;5033557;28;20044;-35
2021/05/13 05:33:10;;;;;;;1.85;0.90;;;21.40;51.00;;;;;;5034896;28;20075;-34
2021/05/13 05:35:37;;;;;;;1.63;0.98;;;21.40;51.00;;;;;;5033521;28;20878;-34
2021/05/13 05:38:03;;;;;;;2.05;0.80;;;21.40;51.00;;;;;;5034721;28;20037;-34
2021/05/13 05:40:29;;;;;;;3.75;1.20;;;21.40;51.00;;;;;;5032299;28;20603;-34
2021/05/13 05:42:55;;;;;;;2.90;1.05;;;21.40;51.10;;;;;;5034055;28;20171;-34
2021/05/13 05:45:22;;;;;;;3.05;0.93;;;21.40;51.00;;;;;;5029964;28;20112;-34
2021/05/13 05:47:49;;;;;;;3.25;1.35;;;21.40;51.00;;;;;;5033085;28;20044;-35
2021/05/13 05:50:15;;;;;;;1.50;0.80;;;21.40;51.10;;;;;;5033986;28;20029;-45
2021/05/13 05:52:40;;;;;;;1.17;0.90;;;21.40;51.10;;;;;;5033069;28;20112;-34
2021/05/13 05:55:07;;;;;;;1.75;1.35;;;21.40;51.10;;;;;;5033871;28;20183;-34
2021/05/13 05:57:33;;;;;;;3.08;1.00;;;21.40;51.00;;;;;;5032149;28;20608;-34
2021/05/13 05:59:58;;;;;;;5.45;1.35;;;21.40;51.20;;;;;;5034017;28;20065;-34
2021/05/13 06:02:25;;;;;;;3.38;1.08;;;21.40;51.60;;;;;;5033118;28;20033;-34
2021/05/13 06:04:52;;;;;;;2.08;1.20;;;21.40;51.60;;;;;;5032493;28;20359;-34
2021/05/13 06:07:19;;;;;;;3.63;1.08;;;21.40;51.60;;;;;;5028750;28;20040;-34
2021/05/13 06:09:45;;;;;;;3.05;1.00;;;21.40;51.60;;;;;;5033746;28;20033;-34
2021/05/13 06:12:12;;;;;;;5.80;1.27;;;21.40;51.70;;;;;;5034388;28;20036;-34
2021/05/13 06:14:39;;;;;;;4.35;1.45;;;21.40;51.80;;;;;;5031931;28;20031;-34
2021/05/13 06:17:04;;;;;;;3.75;1.30;;;21.40;51.90;;;;;;5041425;28;20033;-35
2021/05/13 06:19:30;;;;;;;5.47;1.60;;;21.40;52.00;;;;;;5032478;28;20375;-34
2021/05/13 06:21:56;;;;;;;4.45;1.20;;;21.40;52.20;;;;;;5033114;28;20025;-39
2021/05/13 06:24:22;;;;;;;6.32;1.50;;;21.50;52.30;;;;;;5031196;28;20037;-35
2021/05/13 06:27:01;;;;;;;5.93;1.30;;;21.50;52.30;;;;;;5032252;28;20429;-35
2021/05/13 06:29:30;;;;;;;5.20;1.20;;;21.40;52.40;;;;;;5026210;28;20064;-35
2021/05/13 06:31:57;;;;;;;7.93;1.70;;;21.50;52.40;;;;;;5032064;28;20064;-35
2021/05/13 06:34:23;;;;;;;7.70;1.42;;;21.40;52.40;;;;;;5032065;28;20041;-34
2021/05/13 06:36:49;;;;;;;5.47;1.50;;;21.40;52.40;;;;;;5031540;28;20120;-34
2021/05/13 06:39:15;;;;;;;3.33;1.70;;;21.50;52.40;;;;;;5032085;28;20029;-45
2021/05/13 06:41:42;;;;;;;2.72;1.33;;;21.40;52.40;;;;;;5031742;28;20455;-34
2021/05/13 06:44:08;;;;;;;3.80;1.42;;;21.40;52.30;;;;;;5032539;28;20022;-34
2021/05/13 06:46:34;;;;;;;3.80;1.38;;;21.50;52.40;;;;;;5029909;28;20033;-37
2021/05/13 06:49:00;;;;;;;4.30;1.42;;;21.50;52.30;;;;;;5032093;28;20029;-35
2021/05/13 06:51:26;;;;;;;6.55;1.70;;;21.40;52.30;;;;;;5031842;28;20032;-35
2021/05/13 06:53:51;;;;;;;3.42;1.45;;;21.50;52.50;;;;;;5032151;28;20083;-41
2021/05/13 06:56:18;;;;;;;9.27;1.63;;;21.40;52.30;;;;;;5031040;28;20835;-41
2021/05/13 06:58:45;;;;;;;4.18;1.30;;;21.50;52.30;;;;;;5030264;28;20049;-34
2021/05/13 07:01:10;;;;;;;2.13;1.00;;;21.50;52.30;;;;;;5027792;28;20489;-35
2021/05/13 07:03:36;;;;;;;3.90;1.08;;;21.50;52.40;;;;;;5030878;28;20118;-37
2021/05/13 07:06:02;;;;;;;4.68;1.23;;;21.40;52.40;;;;;;5031115;28;20037;-35
2021/05/13 07:08:28;;;;;;;1.80;0.80;;;21.50;52.40;;;;;;5030144;28;20072;-34
2021/05/13 07:10:54;;;;;;;5.13;1.80;;;21.50;52.50;;;;;;5030660;28;20030;-36
2021/05/13 07:13:19;;;;;;;4.63;1.33;;;21.40;52.50;;;;;;5031082;28;20025;-35
2021/05/13 07:15:45;;;;;;;3.22;1.15;;;21.50;52.50;;;;;;5030149;28;20029;-35
2021/05/13 07:18:13;;;;;;;3.70;1.02;;;21.40;52.30;;;;;;5031219;28;20116;-35
2021/05/13 07:20:39;;;;;;;3.42;1.17;;;21.50;52.40;;;;;;5029890;28;20025;-34
2021/05/13 07:23:05;;;;;;;3.28;1.27;;;21.40;52.30;;;;;;5030608;28;20053;-35
2021/05/13 07:25:32;;;;;;;3.90;1.45;;;21.40;52.40;;;;;;5030810;28;20061;-34
2021/05/13 07:27:59;;;;;;;2.47;1.20;;;21.50;52.40;;;;;;5029911;28;20079;-35
2021/05/13 07:30:25;;;;;;;2.85;1.23;;;21.50;52.40;;;;;;5029343;28;20478;-35
2021/05/13 07:32:52;;;;;;;2.42;1.10;;;21.40;52.30;;;;;;5030726;28;20079;-33
2021/05/13 07:35:18;;;;;;;1.90;1.00;;;21.40;52.30;;;;;;5028170;28;20040;-33
2021/05/13 07:37:45;;;;;;;5.38;1.60;;;21.50;52.40;;;;;;5031256;28;20039;-35
2021/05/13 07:40:12;;;;;;;4.03;1.20;;;21.40;52.20;;;;;;5031453;28;20126;-35
2021/05/13 07:42:38;;;;;;;4.07;0.98;;;21.50;52.30;;;;;;5030929;28;20025;-35
2021/05/13 07:45:06;;;;;;;3.63;1.02;;;21.50;52.30;;;;;;5031340;28;20359;-35
2021/05/13 07:47:39;;;;;;;4.80;1.30;;;21.40;52.20;;;;;;5025684;28;20108;-33
2021/05/13 07:50:14;;;;;;;2.42;1.20;;;21.50;52.20;;;;;;5029291;28;20488;-35
2021/05/13 07:52:40;;;;;;;3.78;1.13;;;21.40;51.90;;;;;;5030794;28;20047;-35
2021/05/13 07:55:07;;;;;;;2.47;0.95;;;21.50;52.10;;;;;;5029281;28;20064;-33
2021/05/13 07:57:33;;;;;;;6.20;1.48;;;21.50;52.00;;;;;;5027382;28;20025;-33
2021/05/13 07:59:59;;;;;;;3.17;1.02;;;21.50;52.10;;;;;;5030263;28;20120;-34
2021/05/13 08:02:24;;;;;;;4.10;1.13;;;21.50;52.10;;;;;;5028551;28;20033;-33
2021/05/13 08:04:50;;;;;;;3.05;1.15;;;21.50;52.10;;;;;;5030725;28;20075;-33
2021/05/13 08:07:21;;;;;;;3.38;0.88;;;21.50;52.20;;;;;;5028719;28;20030;-45
2021/05/13 08:09:48;;;;;;;7.22;1.08;;;21.40;52.00;;;;;;5030021;28;20033;-38
2021/05/13 08:12:14;;;;;;;6.60;1.10;;;21.50;52.00;;;;;;5029622;28;20461;-45
2021/05/13 08:14:39;;;;;;;4.50;1.27;;;21.50;52.00;;;;;;5030471;28;20033;-37
2021/05/13 08:17:05;;;;;;;2.97;1.10;;;21.50;52.00;;;;;;5029386;28;20033;-34
2021/05/13 08:19:31;;;;;;;6.63;1.23;;;21.50;52.00;;;;;;5030021;28;20040;-34
2021/05/13 08:21:57;;;;;;;3.47;1.17;;;21.50;52.20;;;;;;5029176;28;20427;-38
2021/05/13 08:24:23;;;;;;;1.63;1.08;;;21.50;51.90;;;;;;5029850;28;20029;-34
2021/05/13 08:26:48;;;;;;;4.63;1.30;;;21.40;51.20;;;;;;5028051;28;20109;-34
2021/05/13 08:29:14;;;;;;;6.95;1.17;;;21.40;51.30;;;;;;5030396;28;20042;-41
2021/05/13 08:31:40;;;;;;;3.72;1.20;;;21.40;50.70;;;;;;5028742;28;20026;-40
2021/05/13 08:34:06;;;;;;;4.88;2.22;;;21.40;49.80;;;;;;5028800;28;20493;-34
2021/05/13 08:36:31;;;;;;;5.55;1.45;;;21.40;49.50;;;;;;5028113;28;20184;-34
2021/05/13 08:38:57;;;;;;;3.63;1.10;;;21.40;51.90;;;;;;5027720;28;20037;-34
2021/05/13 08:41:23;;;;;;;5.40;1.30;;;21.30;48.60;;;;;;5029881;28;20022;-34
2021/05/13 08:43:53;;;;;;;3.53;1.38;;;21.30;50.70;;;;;;5030630;28;20115;-34
2021/05/13 08:46:20;;;;;;;8.77;1.30;;;21.30;48.50;;;;;;5030031;28;20079;-34
2021/05/13 08:48:47;;;;;;;4.75;1.15;;;21.10;45.90;;;;;;5032762;28;20030;-45
2021/05/13 08:51:13;;;;;;;8.13;1.52;;;21.00;50.90;;;;;;5031618;28;20056;-43
2021/05/13 08:53:53;;;;;;;5.88;1.77;;;21.20;47.50;;;;;;5034509;28;20032;-34
2021/05/13 08:56:20;;;;;;;2.70;1.20;;;21.10;46.90;;;;;;5061372;28;20387;-34
2021/05/13 08:58:46;;;;;;;2.83;0.90;;;20.90;45.80;;;;;;5035060;28;20148;-33
2021/05/13 09:01:24;;;;;;;2.08;0.98;;;21.00;50.60;;;;;;5033898;28;20495;-34
2021/05/13 09:03:53;;;;;;;6.55;1.00;;;21.20;47.60;;;;;;5035382;28;20032;-34
2021/05/13 09:06:28;;;;;;;5.55;1.75;;;21.30;47.50;;;;;;5033944;28;20094;-35
2021/05/13 09:09:12;;;;;;;1.67;0.98;;;21.30;48.40;;;;;;5032942;28;20482;-45
2021/05/13 09:11:52;;;;;;;8.23;1.30;;;21.40;48.90;;;;;;5031831;28;20474;-34
2021/05/13 09:14:31;;;;;;;3.00;0.93;;;21.40;49.00;;;;;;5033090;28;20112;-42
2021/05/13 09:16:59;;;;;;;3.13;0.80;;;21.40;49.00;;;;;;5029885;28;20056;-35
2021/05/13 09:19:34;;;;;;;3.25;1.10;;;21.40;49.10;;;;;;5042584;28;20029;-34
2021/05/13 09:22:07;;;;;;;5.10;1.00;;;21.40;48.80;;;;;;5042566;28;20032;-34
2021/05/13 09:24:55;;;;;;;2.40;1.25;;;21.50;48.90;;;;;;5040337;28;20400;-34
2021/05/13 09:27:33;;;;;;;1.52;0.77;;;21.50;49.00;;;;;;5033748;28;20033;-34
2021/05/13 09:30:13;;;;;;;2.47;0.80;;;21.50;49.00;;;;;;5033058;28;20033;-35
2021/05/13 09:32:40;;;;;;;3.92;0.90;;;21.50;49.10;;;;;;5034160;28;20029;-33
2021/05/13 09:35:09;;;;;;;1.70;0.70;;;21.50;49.00;;;;;;5033236;28;20485;-36
2021/05/13 09:37:40;;;;;;;4.50;1.00;;;21.50;48.90;;;;;;5051873;28;20033;-34
2021/05/13 09:40:06;;;;;;;2.03;1.00;;;21.50;49.10;;;;;;5034321;28;20033;-35
2021/05/13 09:42:32;;;;;;;2.72;1.02;;;21.50;49.20;;;;;;5033982;28;20030;-34
2021/05/13 09:44:59;;;;;;;6.00;1.35;;;21.50;50.00;;;;;;5029653;28;20075;-36
2021/05/13 09:47:27;;;;;;;4.28;1.20;;;21.50;49.90;;;;;;5031912;28;20098;-34
2021/05/13 09:49:55;;;;;;;4.03;0.82;;;21.60;50.00;;;;;;5017143;28;20047;-34
2021/05/13 09:52:48;;;;;;;2.72;1.20;;;21.60;50.30;;;;;;5032719;28;20108;-38
2021/05/13 09:55:16;;;;;;;4.13;1.00;;;21.60;50.20;;;;;;5030367;28;20498;-33
2021/05/13 09:57:49;;;;;;;4.10;1.00;;;21.60;50.20;;;;;;5033767;28;20029;-34
2021/05/13 10:00:35;;;;;;;7.70;1.00;;;21.70;49.90;;;;;;5032077;28;20050;-42
2021/05/13 10:03:02;;;;;;;4.05;1.35;;;21.70;49.90;;;;;;5032996;28;20029;-33
2021/05/13 10:05:28;;;;;;;2.72;0.80;;;21.70;49.50;;;;;;5032708;28;20029;-34
2021/05/13 10:07:54;;;;;;;4.15;1.08;;;21.80;49.90;;;;;;5033849;28;20056;-34
2021/05/13 10:10:20;;;;;;;5.38;1.55;;;21.80;49.90;;;;;;5032780;28;20514;-37
2021/05/13 10:12:46;;;;;;;5.65;1.92;;;21.80;50.60;;;;;;5034016;28;20033;-33
2021/05/13 10:15:14;;;;;;;14.10;2.10;;;21.80;50.40;;;;;;5042063;28;20076;-34
2021/05/13 10:17:45;;;;;;;7.07;2.47;;;21.90;50.20;;;;;;5033006;28;20095;-34
2021/05/13 10:20:15;;;;;;;12.77;2.08;;;21.90;50.00;;;;;;5033658;28;20429;-34
2021/05/13 10:22:46;;;;;;;6.50;2.55;;;21.90;50.00;;;;;;5031698;28;20037;-33
2021/05/13 10:25:24;;;;;;;7.07;2.03;;;21.90;50.40;;;;;;5031539;28;20029;-33
2021/05/13 10:28:00;;;;;;;3.88;1.60;;;21.90;49.80;;;;;;5033515;28;20041;-34
2021/05/13 10:30:31;;;;;;;4.35;1.98;;;21.90;49.70;;;;;;5032726;28;20099;-34
2021/05/13 10:33:19;;;;;;;3.03;1.45;;;21.90;49.70;;;;;;5032318;28;20053;-33
2021/05/13 10:36:06;;;;;;;5.65;1.80;;;21.90;49.80;;;;;;5033080;28;20068;-34
2021/05/13 10:38:50;;;;;;;4.95;1.80;;;21.90;49.80;;;;;;5028537;28;20025;-34
2021/05/13 10:41:39;;;;;;;3.90;1.67;;;21.90;49.80;;;;;;5033483;28;20091;-34
2021/05/13 10:44:11;;;;;;;3.38;1.35;;;21.90;49.50;;;;;;5029352;28;20033;-35
2021/05/13 10:46:55;;;;;;;4.50;1.83;;;21.90;49.50;;;;;;5031405;28;20033;-34
2021/05/13 10:49:25;;;;;;;5.15;1.30;;;21.90;49.30;;;;;;5031548;28;20045;-43
2021/05/13 10:51:54;;;;;;;3.38;1.70;;;22.00;49.30;;;;;;5038480;28;20040;-34
2021/05/13 10:54:28;;;;;;;3.83;1.00;;;22.00;49.10;;;;;;5032410;28;20091;-43
2021/05/13 10:57:14;;;;;;;4.88;0.98;;;22.00;48.90;;;;;;5032487;28;20033;-34
2021/05/13 11:02:51;;;;;;;3.42;1.77;;;22.00;48.40;;;;;;5032417;28;20041;-34
2021/05/13 11:05:49;;;;;;;4.45;1.80;;;22.00;48.00;;;;;;5033089;28;20021;-34
2021/05/13 11:08:17;;;;;;;2.78;1.30;;;22.00;47.50;;;;;;5030589;28;20040;-44
2021/05/13 11:11:02;;;;;;;5.00;1.70;;;22.10;47.80;;;;;;5031354;28;20030;-43
2021/05/13 11:13:43;;;;;;;4.47;1.42;;;22.10;47.80;;;;;;5032006;28;20021;-44
2021/05/13 11:16:46;;;;;;;5.00;1.08;;;22.10;47.60;;;;;;5031278;28;20057;-44
2021/05/13 11:19:23;;;;;;;5.45;1.73;;;22.10;47.80;;;;;;5032109;28;20037;-44
2021/05/13 11:22:00;;;;;;;4.60;1.33;;;22.10;48.50;;;;;;5032303;28;20018;-45
2021/05/13 11:24:38;;;;;;;6.85;1.48;;;22.20;48.70;;;;;;5030663;28;20463;-44
2021/05/13 11:27:05;;;;;;;4.13;1.27;;;22.20;48.50;;;;;;5032308;28;20049;-44
2021/05/13 11:29:50;;;;;;;8.45;1.20;;;22.20;48.70;;;;;;5011021;28;20091;-45
2021/05/13 11:32:17;;;;;;;7.57;1.85;;;22.20;48.90;;;;;;5028836;28;20026;-44
2021/05/13 11:34:44;;;;;;;8.15;1.10;;;22.20;48.90;;;;;;5030205;28;20021;-44
2021/05/13 11:37:30;;;;;;;3.40;1.45;;;22.20;48.80;;;;;;5030537;28;20532;-43
2021/05/13 11:39:55;;;;;;;9.48;1.10;;;22.30;48.80;;;;;;5030677;28;20094;-44
2021/05/13 11:42:21;;;;;;;7.85;1.45;;;22.30;48.90;;;;;;5030660;28;20102;-52
2021/05/13 11:44:59;;;;;;;5.35;0.95;;;22.30;49.00;;;;;;5030887;28;20040;-44
2021/05/13 11:47:31;;;;;;;5.28;1.50;;;22.30;48.90;;;;;;5030409;28;20033;-44
2021/05/13 11:49:56;;;;;;;4.60;1.15;;;22.30;49.80;;;;;;5030897;28;20745;-44
2021/05/13 11:52:22;;;;;;;5.60;1.30;;;22.30;50.20;;;;;;5029130;28;20033;-51
2021/05/13 11:54:48;;;;;;;5.70;1.40;;;22.30;49.70;;;;;;5030475;28;21580;-44
2021/05/13 11:57:13;;;;;;;7.78;1.10;;;22.30;49.90;;;;;;5030489;28;20449;-44
2021/05/13 11:59:39;;;;;;;5.43;1.10;;;22.30;49.80;;;;;;5030051;28;20130;-41
2021/05/13 12:02:14;;;;;;;4.57;1.02;;;22.30;49.90;;;;;;5029243;28;20028;-45
2021/05/13 12:04:41;;;;;;;6.03;1.08;;;22.30;49.50;;;;;;5051699;28;20145;-46
2021/05/13 12:07:15;;;;;;;1.45;1.00;;;22.30;49.60;;;;;;5028600;28;20800;-45
2021/05/13 12:09:49;;;;;;;2.28;1.15;;;22.30;49.30;;;;;;5027458;28;20033;-44
2021/05/13 12:12:22;;;;;;;5.43;1.02;;;22.30;49.60;;;;;;5024169;28;20029;-45
2021/05/13 12:14:49;;;;;;;2.13;0.93;;;22.30;49.50;;;;;;5030270;28;20033;-44
2021/05/13 12:17:15;;;;;;;1.60;0.77;;;22.30;49.50;;;;;;5029320;28;20061;-45
2021/05/13 12:19:46;;;;;;;5.43;0.98;;;22.30;49.70;;;;;;5023788;28;20037;-44
2021/05/13 12:22:14;;;;;;;2.35;0.90;;;22.40;49.30;;;;;;5024982;28;20030;-45
2021/05/13 12:24:48;;;;;;;2.55;0.90;;;22.30;49.10;;;;;;5027544;28;20075;-47
2021/05/13 12:27:16;;;;;;;3.20;0.93;;;22.40;49.10;;;;;;5026895;28;20132;-45
2021/05/13 12:29:46;;;;;;;4.05;1.10;;;22.40;49.10;;;;;;5026184;28;20105;-46
2021/05/13 12:32:11;;;;;;;3.72;0.70;;;22.40;49.20;;;;;;5027567;28;20056;-45
2021/05/13 12:34:41;;;;;;;6.90;1.00;;;22.40;49.60;;;;;;5029602;28;20056;-46
2021/05/13 12:37:09;;;;;;;4.07;1.25;;;22.40;49.30;;;;;;5030858;28;20060;-45
2021/05/13 12:39:39;;;;;;;5.13;1.10;;;22.30;49.50;;;;;;5030644;28;20069;-50
2021/05/13 12:42:28;;;;;;;2.38;1.08;;;22.40;49.10;;;;;;5028345;28;20406;-43
2021/05/13 12:45:16;;;;;;;3.00;0.90;;;22.40;49.70;;;;;;5027852;28;20029;-45
2021/05/13 12:47:43;;;;;;;5.75;1.08;;;22.40;49.30;;;;;;5028238;28;20056;-44
2021/05/13 12:50:09;;;;;;;4.45;0.98;;;22.40;49.20;;;;;;5028952;28;20030;-44
2021/05/13 12:52:36;;;;;;;6.20;1.48;;;22.40;48.90;;;;;;5028093;28;20029;-44
2021/05/13 12:55:16;;;;;;;5.93;1.45;;;22.50;49.30;;;;;;5030167;28;20112;-44
2021/05/13 12:57:44;;;;;;;9.40;1.10;;;22.50;49.50;;;;;;5025553;28;20029;-45
2021/05/13 13:00:10;;;;;;;1.98;0.95;;;22.50;49.60;;;;;;5030165;28;20052;-46
2021/05/13 13:02:37;;;;;;;6.47;1.40;;;22.50;49.40;;;;;;5029065;28;20466;-45